Time;durP1;ratioP1;P1;durP2;ratioP2;P2;SDS_P1;SDS_P2;PMS_P1;PMS_P2;Temp;Humidity;BMP_temperature;BMP_pressure;BME280_temperature;BME280_humidity;BME280_pressure;Samples;Min_cycle;Max_cycle;Signal;HPM_P1;HPM_P2
2023/05/24 00:02:14;;;;;;;;;5.33;2.33;;;;;16.61;64.03;102096.50;5018643;28;45309;-77
2023/05/24 00:04:40;;;;;;;;;4.00;2.00;;;;;16.58;64.05;102089.41;5018439;28;52135;-76
2023/05/24 00:07:06;;;;;;;;;4.00;2.00;;;;;16.55;64.52;102085.81;5015837;28;45453;-76
2023/05/24 00:09:31;;;;;;;;;5.33;4.00;;;;;16.50;64.74;102092.00;5018239;28;46311;-77
2023/05/24 00:11:57;;;;;;;;;4.00;2.00;;;;;16.48;65.02;102079.53;5013718;28;60378;-76
2023/05/24 00:14:22;;;;;;;;;2.00;2.00;;;;;16.45;64.89;102082.19;5018408;28;45215;-76
2023/05/24 00:16:47;;;;;;;;;3.33;1.33;;;;;16.42;65.21;102076.84;5011030;28;58417;-76
2023/05/24 00:19:17;;;;;;;;;2.00;2.00;;;;;16.41;65.47;102077.72;5018468;28;46363;-77
2023/05/24 00:21:45;;;;;;;;;7.67;3.67;;;;;16.40;65.74;102065.25;5017873;28;45305;-75
2023/05/24 00:24:11;;;;;;;;;6.00;3.00;;;;;16.38;65.88;102067.03;5018189;28;45420;-77
2023/05/24 00:26:36;;;;;;;;;3.33;2.00;;;;;16.35;65.86;102073.25;5007425;28;45492;-77
2023/05/24 00:29:02;;;;;;;;;7.00;5.00;;;;;16.32;65.91;102069.66;5018313;28;46500;-77
2023/05/24 00:31:27;;;;;;;;;6.00;3.67;;;;;16.28;65.58;102068.75;5006960;28;45417;-76
2023/05/24 00:33:53;;;;;;;;;4.00;2.00;;;;;16.24;65.53;102069.59;5018125;28;45222;-75
2023/05/24 00:36:18;;;;;;;;;9.67;3.00;;;;;16.19;66.14;102055.34;4997232;28;45306;-77
2023/05/24 00:38:43;;;;;;;;;7.67;2.00;;;;;16.19;66.57;102058.91;5017472;28;46674;-76
2023/05/24 00:41:10;;;;;;;;;3.00;2.33;;;;;16.19;66.85;102053.59;5004728;28;58963;-76
2023/05/24 00:43:36;;;;;;;;;2.67;2.67;;;;;16.18;67.00;102054.44;5018015;28;45583;-77
2023/05/24 00:46:14;;;;;;;;;1.33;1.33;;;;;16.18;67.04;102058.88;5015579;28;45529;-77
2023/05/24 00:48:40;;;;;;;;;3.00;2.00;;;;;16.15;67.75;102053.56;5009744;28;46796;-77
2023/05/24 00:51:05;;;;;;;;;3.33;3.33;;;;;16.14;67.38;102047.34;5017047;28;45467;-77
2023/05/24 00:53:31;;;;;;;;;4.67;2.00;;;;;16.11;67.46;102047.28;5017808;28;45293;-77
2023/05/24 00:55:58;;;;;;;;;3.67;2.00;;;;;16.09;67.82;102045.50;4999066;28;61863;-77
2023/05/24 00:58:29;;;;;;;;;4.33;3.00;;;;;16.07;68.02;102042.81;5017512;28;47677;-77
2023/05/24 01:00:58;;;;;;;;;6.67;2.33;;;;;16.06;68.49;102042.81;4995802;28;45488;-76
2023/05/24 01:03:27;;;;;;;;;1.33;1.33;;;;;16.04;68.65;102033.94;5014431;28;45530;-76
2023/05/24 01:05:53;;;;;;;;;4.00;3.00;;;;;16.03;69.07;102038.34;5010663;28;45558;-76
2023/05/24 01:08:38;;;;;;;;;2.00;2.00;;;;;16.02;69.30;102038.34;4999306;28;46314;-76
2023/05/24 01:11:25;;;;;;;;;5.00;2.00;;;;;15.99;69.28;102041.88;5017538;28;45435;-76
2023/05/24 01:14:03;;;;;;;;;4.00;3.00;;;;;15.97;69.72;102041.84;5019641;28;45341;-77
2023/05/24 01:16:45;;;;;;;;;5.00;2.33;;;;;15.95;69.89;102048.06;5012442;28;45719;-77
2023/05/24 01:19:29;;;;;;;;;2.67;2.67;;;;;15.95;70.07;102048.06;4999678;28;46549;-77
2023/05/24 01:22:10;;;;;;;;;8.00;4.00;;;;;15.93;70.49;102052.50;5014033;28;45277;-77
2023/05/24 01:24:54;;;;;;;;;2.00;2.00;;;;;15.90;70.33;102055.13;5015523;28;45521;-77
2023/05/24 01:27:21;;;;;;;;;4.00;4.00;;;;;15.88;70.72;102049.78;5018022;28;45464;-78
2023/05/24 01:29:52;;;;;;;;;1.67;1.67;;;;;15.85;70.43;102052.41;5000064;28;66166;-76
2023/05/24 01:32:18;;;;;;;;;6.33;2.00;;;;;15.83;71.04;102054.19;5015418;28;45401;-77
2023/05/24 01:34:43;;;;;;;;;6.67;4.00;;;;;15.77;70.94;102053.25;5017356;28;45463;-76
2023/05/24 01:37:09;;;;;;;;;3.33;2.00;;;;;15.78;71.39;102050.56;5007566;28;45630;-77
2023/05/24 01:39:35;;;;;;;;;2.33;2.33;;;;;15.76;71.69;102064.75;5014550;28;64225;-76
2023/05/24 01:42:11;;;;;;;;;4.00;2.67;;;;;15.77;71.67;102071.88;5015238;28;63588;-76
2023/05/24 01:45:22;;;;;;;;;4.67;3.00;;;;;15.76;71.83;102062.97;5017136;28;45396;-76
2023/05/24 01:48:01;;;;;;;;;8.00;4.00;;;;;15.72;72.22;102058.53;5015146;28;45470;-77
2023/05/24 01:50:37;;;;;;;;;4.33;3.00;;;;;15.69;72.37;102058.47;4996933;28;45889;-76
2023/05/24 01:53:05;;;;;;;;;4.33;4.00;;;;;15.68;72.53;102062.03;5015272;28;45366;-76
2023/05/24 01:55:31;;;;;;;;;7.33;3.00;;;;;15.66;72.74;102064.69;4998961;28;45412;-76
2023/05/24 01:58:00;;;;;;;;;3.67;2.00;;;;;15.65;73.01;102061.97;4998698;28;45484;-76
2023/05/24 02:00:26;;;;;;;;;3.00;3.00;;;;;15.63;72.86;102069.06;5016037;28;47746;-77
2023/05/24 02:02:51;;;;;;;;;5.00;3.00;;;;;15.60;73.47;102058.34;5014107;28;65346;-77
2023/05/24 02:05:17;;;;;;;;;4.00;2.67;;;;;15.56;73.37;102061.88;5014745;28;64537;-76
2023/05/24 02:07:42;;;;;;;;;7.33;4.00;;;;;15.56;73.65;102075.19;5015924;28;60538;-75
2023/05/24 02:10:08;;;;;;;;;7.67;3.33;;;;;15.54;74.20;102071.59;5016708;28;46416;-75
2023/05/24 02:12:33;;;;;;;;;2.33;2.00;;;;;15.53;74.55;102069.81;5016371;28;45491;-76
2023/05/24 02:14:59;;;;;;;;;6.00;3.00;;;;;15.52;74.72;102065.38;5010403;28;57451;-77
2023/05/24 02:17:25;;;;;;;;;5.00;5.00;;;;;15.48;74.20;102063.56;5016449;28;45345;-77
2023/05/24 02:19:51;;;;;;;;;2.00;2.00;;;;;15.47;74.93;102065.31;5013133;28;45474;-77
2023/05/24 02:22:16;;;;;;;;;2.33;2.00;;;;;15.43;75.14;102060.84;5010130;28;45446;-77
2023/05/24 02:24:42;;;;;;;;;3.33;3.33;;;;;15.45;75.06;102059.09;5013319;28;45436;-76
2023/05/24 02:27:07;;;;;;;;;3.33;2.00;;;;;15.43;75.08;102063.50;5008790;28;45333;-76
2023/05/24 02:29:33;;;;;;;;;3.67;2.33;;;;;15.40;75.58;102061.72;5011529;28;65097;-77
2023/05/24 02:31:58;;;;;;;;;3.67;2.00;;;;;15.34;75.32;102048.34;5016164;28;45424;-76
2023/05/24 02:34:24;;;;;;;;;5.33;3.33;;;;;15.36;75.79;102064.31;4998048;28;45602;-76
2023/05/24 02:36:50;;;;;;;;;3.00;3.00;;;;;15.35;75.91;102057.22;5007358;28;45402;-78
2023/05/24 02:39:15;;;;;;;;;4.33;3.00;;;;;15.32;76.30;102051.84;5009014;28;46435;-76
2023/05/24 02:41:41;;;;;;;;;7.67;3.00;;;;;15.28;76.55;102056.22;5015875;28;45362;-77
2023/05/24 02:44:06;;;;;;;;;3.00;2.00;;;;;15.25;76.69;102052.66;5015164;28;53218;-76
2023/05/24 02:46:31;;;;;;;;;6.67;2.33;;;;;15.26;76.68;102047.34;5016054;28;60645;-76
2023/05/24 02:48:57;;;;;;;;;2.00;2.00;;;;;15.25;77.28;102039.34;5016339;28;45611;-77
2023/05/24 02:51:22;;;;;;;;;3.33;2.33;;;;;15.24;77.54;102042.91;5006014;28;45581;-77
2023/05/24 02:53:48;;;;;;;;;4.33;3.00;;;;;15.24;77.38;102049.13;5015340;28;50456;-77
2023/05/24 02:56:16;;;;;;;;;3.00;3.00;;;;;15.19;77.63;102025.09;5005754;28;63560;-76
2023/05/24 02:58:43;;;;;;;;;4.67;2.67;;;;;15.20;77.97;102037.53;5013023;28;46304;-76
2023/05/24 03:01:11;;;;;;;;;4.00;3.00;;;;;15.18;77.81;102038.41;5016246;28;45829;-77
2023/05/24 03:03:37;;;;;;;;;5.00;2.67;;;;;15.19;78.03;102048.16;5015119;28;45495;-77
2023/05/24 03:06:02;;;;;;;;;5.00;2.67;;;;;15.17;78.37;102037.47;5004341;28;45491;-77
2023/05/24 03:08:29;;;;;;;;;6.00;2.00;;;;;15.14;78.31;102041.91;5016281;28;47763;-78
2023/05/24 03:10:54;;;;;;;;;2.67;2.00;;;;;15.12;78.54;102036.53;5018452;28;67430;-77
2023/05/24 03:13:19;;;;;;;;;2.00;2.00;;;;;15.12;79.01;102031.22;5016898;28;64699;-76
2023/05/24 03:15:45;;;;;;;;;3.00;3.00;;;;;15.10;79.14;102032.97;5016058;28;45471;-76
2023/05/24 03:18:10;;;;;;;;;4.00;2.00;;;;;15.06;79.22;102028.50;5012610;28;45541;-76
2023/05/24 03:20:36;;;;;;;;;2.67;2.00;;;;;15.07;79.34;102037.34;5010434;28;66257;-76
2023/05/24 03:23:01;;;;;;;;;4.33;3.00;;;;;15.04;79.30;102038.22;5019440;28;45271;-77
2023/05/24 03:25:27;;;;;;;;;5.00;3.00;;;;;15.07;79.72;102037.34;5015415;28;45431;-76
2023/05/24 03:27:52;;;;;;;;;5.00;2.00;;;;;15.06;79.60;102035.56;5018563;28;46424;-77
2023/05/24 03:30:17;;;;;;;;;4.67;3.00;;;;;15.06;80.12;102025.81;5021997;28;67857;-76
2023/05/24 03:32:43;;;;;;;;;4.00;3.00;;;;;15.04;80.22;102030.25;5016679;28;45475;-77
2023/05/24 03:35:10;;;;;;;;;3.33;2.00;;;;;15.04;80.12;102032.03;5018923;28;45487;-76
2023/05/24 03:37:36;;;;;;;;;2.67;2.67;;;;;15.03;80.65;102035.56;5015800;28;46561;-76
2023/05/24 03:40:03;;;;;;;;;6.33;4.67;;;;;15.00;80.56;102028.41;5011193;28;45318;-78
2023/05/24 03:42:28;;;;;;;;;1.00;1.00;;;;;14.99;80.59;102031.06;5012667;28;45384;-76
2023/05/24 03:44:54;;;;;;;;;5.33;3.00;;;;;14.99;81.04;102031.06;5018276;28;45430;-76
2023/05/24 03:47:20;;;;;;;;;2.00;2.00;;;;;14.99;81.03;102036.38;5018952;28;48151;-78
2023/05/24 03:49:45;;;;;;;;;5.67;3.00;;;;;14.98;81.29;102040.81;5018463;28;45426;-76
2023/05/24 03:52:11;;;;;;;;;3.00;3.00;;;;;14.94;81.12;102037.22;5017498;28;45371;-77
2023/05/24 03:54:36;;;;;;;;;6.33;4.00;;;;;14.95;81.50;102043.44;5015305;28;45568;-76
2023/05/24 03:57:01;;;;;;;;;3.00;3.00;;;;;14.94;81.60;102046.97;5017286;28;46490;-76
2023/05/24 03:59:27;;;;;;;;;5.00;2.00;;;;;14.96;81.40;102044.31;5011902;28;46290;-76
2023/05/24 04:01:52;;;;;;;;;7.33;3.00;;;;;14.98;81.48;102046.13;5017962;28;50461;-76
2023/05/24 04:04:17;;;;;;;;;2.33;2.33;;;;;14.98;81.10;102048.81;5018689;28;45338;-77
2023/05/24 04:06:43;;;;;;;;;8.00;3.67;;;;;15.02;81.81;102047.97;5018027;28;66209;-76
2023/05/24 04:09:08;;;;;;;;;3.00;3.00;;;;;15.04;81.92;102053.31;5017530;28;68552;-77
2023/05/24 04:11:35;;;;;;;;;8.00;3.00;;;;;15.05;81.56;102053.31;5004487;28;45323;-77
2023/05/24 04:14:00;;;;;;;;;4.00;3.00;;;;;15.04;81.36;102059.50;5017573;28;45206;-76
2023/05/24 04:16:26;;;;;;;;;5.00;3.00;;;;;15.05;81.36;102047.09;5018545;28;53560;-77
2023/05/24 04:18:55;;;;;;;;;5.00;3.00;;;;;15.03;81.58;102054.19;5020700;28;45380;-77
2023/05/24 04:21:21;;;;;;;;;5.00;3.00;;;;;15.03;81.78;102060.38;5008135;28;45475;-76
2023/05/24 04:23:46;;;;;;;;;5.00;2.67;;;;;14.99;81.78;102060.31;5012007;28;45693;-75
2023/05/24 04:26:13;;;;;;;;;3.00;3.00;;;;;15.00;82.00;102064.75;5016709;28;47657;-78
2023/05/24 04:28:38;;;;;;;;;3.67;3.67;;;;;14.98;81.57;102064.75;5017908;28;45261;-77
2023/05/24 04:31:05;;;;;;;;;3.67;2.00;;;;;14.96;81.89;102060.28;5017254;28;45448;-76
2023/05/24 04:33:31;;;;;;;;;5.00;4.00;;;;;14.97;81.97;102067.38;5018281;28;45581;-76
2023/05/24 04:35:59;;;;;;;;;4.33;3.00;;;;;14.94;81.86;102071.78;5014397;28;46202;-77
2023/05/24 04:38:28;;;;;;;;;3.67;1.33;;;;;14.92;81.99;102070.00;5007427;28;45424;-77
2023/05/24 04:40:54;;;;;;;;;3.33;3.33;;;;;14.93;82.29;102074.44;5017959;28;45202;-78
2023/05/24 04:43:19;;;;;;;;;4.00;4.00;;;;;14.92;82.32;102077.97;5018651;28;45321;-77
2023/05/24 04:45:44;;;;;;;;;3.33;2.33;;;;;14.95;82.11;102083.31;5012553;28;61316;-77
2023/05/24 04:48:10;;;;;;;;;6.67;3.67;;;;;14.94;82.75;102079.78;5016054;28;45304;-77
2023/05/24 04:50:36;;;;;;;;;3.00;3.00;;;;;14.97;82.31;102083.34;5015032;28;65275;-77
2023/05/24 04:53:02;;;;;;;;;3.00;3.00;;;;;14.95;82.70;102080.66;5015439;28;45619;-79
2023/05/24 04:55:28;;;;;;;;;3.00;3.00;;;;;14.94;82.43;102092.19;5014802;28;45503;-82
2023/05/24 04:57:53;;;;;;;;;3.00;3.00;;;;;14.95;82.74;102088.63;5012041;28;59788;-84
2023/05/24 05:00:19;;;;;;;;;3.33;3.00;;;;;14.97;82.83;102080.66;5011941;28;61282;-82
2023/05/24 05:02:44;;;;;;;;;3.67;2.00;;;;;14.96;82.99;102081.56;5014591;28;45368;-82
2023/05/24 05:05:10;;;;;;;;;4.33;2.33;;;;;14.97;83.38;102092.25;4995837;28;45748;-78
2023/05/24 05:07:35;;;;;;;;;3.00;3.00;;;;;14.96;83.22;102090.41;5010781;28;45305;-80
2023/05/24 05:10:01;;;;;;;;;4.00;3.00;;;;;14.97;82.77;102084.25;5010683;28;45338;-81
2023/05/24 05:12:26;;;;;;;;;4.00;3.00;;;;;14.98;82.89;102087.81;5014506;28;45428;-79
2023/05/24 05:14:52;;;;;;;;;4.67;3.33;;;;;14.97;83.36;102092.25;4995046;28;57188;-76
2023/05/24 05:17:17;;;;;;;;;3.67;3.33;;;;;14.97;83.10;102089.56;5016524;28;45187;-76
2023/05/24 05:19:42;;;;;;;;;7.00;3.33;;;;;14.98;83.19;102102.00;5016356;28;45539;-77
2023/05/24 05:22:08;;;;;;;;;7.67;5.00;;;;;14.96;83.21;102085.09;5011327;28;45332;-76
2023/05/24 05:24:33;;;;;;;;;7.00;4.00;;;;;14.99;83.35;102085.16;5012186;28;61489;-77
2023/05/24 05:26:58;;;;;;;;;3.00;3.00;;;;;14.99;83.10;102085.16;5123191;22;45404;-77
2023/05/24 05:29:24;;;;;;;;;4.33;2.67;;;;;15.03;83.32;102086.09;5014281;28;54595;-77
2023/05/24 05:31:49;;;;;;;;;5.00;3.33;;;;;15.06;83.28;102088.78;5006260;28;60274;-77
2023/05/24 05:34:15;;;;;;;;;3.00;3.00;;;;;15.08;83.24;102092.38;5014421;28;46750;-76
2023/05/24 05:36:41;;;;;;;;;2.67;2.33;;;;;15.08;83.24;102087.94;5014639;28;45721;-77
2023/05/24 05:39:09;;;;;;;;;5.00;4.00;;;;;15.10;82.99;102088.84;5012067;28;45496;-79
2023/05/24 05:41:38;;;;;;;;;4.33;4.00;;;;;15.12;83.01;102092.41;5012718;28;46466;-78
2023/05/24 05:44:04;;;;;;;;;4.00;3.00;;;;;15.14;82.73;102088.00;5013541;28;46090;-79
2023/05/24 05:46:29;;;;;;;;;3.00;3.00;;;;;15.16;82.75;102101.31;5011784;28;45476;-78
2023/05/24 05:48:54;;;;;;;;;2.67;2.67;;;;;15.16;82.72;102091.56;5011503;28;45865;-79
2023/05/24 05:51:20;;;;;;;;;4.00;4.00;;;;;15.17;82.64;102090.69;5014275;28;45632;-79
2023/05/24 05:53:45;;;;;;;;;8.00;2.00;;;;;15.21;82.63;102096.94;5012701;28;46772;-78
2023/05/24 05:56:11;;;;;;;;;8.00;3.00;;;;;15.20;82.86;102087.19;5016043;28;63422;-80
2023/05/24 05:58:37;;;;;;;;;3.00;3.00;;;;;15.23;82.74;102100.50;5014855;28;45775;-80
2023/05/24 06:01:03;;;;;;;;;4.33;2.67;;;;;15.24;82.45;102090.78;4987794;28;45534;-80
2023/05/24 06:03:28;;;;;;;;;3.33;2.67;;;;;15.26;82.33;102086.38;5015831;28;46796;-79
2023/05/24 06:05:54;;;;;;;;;4.00;3.00;;;;;15.27;82.86;102096.13;5013544;28;65764;-80
2023/05/24 06:08:19;;;;;;;;;3.00;3.00;;;;;15.29;82.89;102097.97;5008283;28;45410;-77
2023/05/24 06:10:44;;;;;;;;;6.67;3.67;;;;;15.31;82.70;102100.63;5015521;28;45544;-79
2023/05/24 06:13:10;;;;;;;;;6.00;3.00;;;;;15.33;82.74;102101.53;5011922;28;51680;-78
2023/05/24 06:15:36;;;;;;;;;12.00;3.33;;;;;15.36;83.06;102099.81;5005668;28;45286;-77
2023/05/24 06:18:01;;;;;;;;;4.33;2.00;;;;;15.39;82.51;102107.84;5012300;28;45416;-78
2023/05/24 06:20:27;;;;;;;;;4.33;2.67;;;;;15.39;82.80;102104.25;5003936;28;45597;-78
2023/05/24 06:22:52;;;;;;;;;7.00;3.00;;;;;15.42;82.29;102118.50;5005274;28;69181;-77
2023/05/24 06:25:19;;;;;;;;;5.00;3.67;;;;;15.42;82.63;102118.50;5001804;28;45443;-79
2023/05/24 06:27:45;;;;;;;;;2.67;2.67;;;;;15.44;82.47;102111.41;5012095;28;45570;-78
2023/05/24 06:30:12;;;;;;;;;4.00;2.00;;;;;15.43;82.44;102111.41;5009430;28;45613;-78
2023/05/24 06:32:37;;;;;;;;;5.67;3.00;;;;;15.45;82.52;102120.31;5015138;28;45647;-78
2023/05/24 06:35:03;;;;;;;;;4.00;2.00;;;;;15.47;82.97;102110.56;5010615;28;61515;-77
2023/05/24 06:37:29;;;;;;;;;4.33;4.33;;;;;15.48;82.80;102114.13;5001539;28;45380;-78
2023/05/24 06:39:55;;;;;;;;;5.67;2.67;;;;;15.49;83.09;102111.47;5004663;28;45238;-79
2023/05/24 06:42:20;;;;;;;;;3.33;3.00;;;;;15.50;82.88;102110.63;5009188;28;45294;-78
2023/05/24 06:44:45;;;;;;;;;4.00;4.00;;;;;15.52;82.59;102114.19;5007851;28;67398;-78
2023/05/24 06:47:11;;;;;;;;;7.33;5.00;;;;;15.55;82.92;102106.22;5012832;28;64167;-79
2023/05/24 06:49:36;;;;;;;;;5.00;3.67;;;;;15.56;82.86;102108.03;5014891;28;45445;-78
2023/05/24 06:52:02;;;;;;;;;5.00;4.00;;;;;15.60;83.25;102108.91;5007188;28;46527;-76
2023/05/24 06:54:27;;;;;;;;;4.00;2.67;;;;;15.62;82.99;102116.06;5014268;28;45314;-77
2023/05/24 06:56:53;;;;;;;;;3.00;3.00;;;;;15.66;83.08;102117.94;5014499;28;63553;-78
2023/05/24 06:59:18;;;;;;;;;7.33;4.00;;;;;15.68;82.89;102108.19;5017026;28;45330;-76
2023/05/24 07:01:44;;;;;;;;;4.33;3.67;;;;;15.73;83.26;102102.00;5017561;28;45634;-76
2023/05/24 07:04:09;;;;;;;;;4.00;3.00;;;;;15.76;83.46;102102.03;4997710;28;46124;-77
2023/05/24 07:06:36;;;;;;;;;4.67;3.00;;;;;15.79;83.34;102110.06;5015160;28;56201;-76
2023/05/24 07:09:02;;;;;;;;;10.00;4.00;;;;;15.83;83.58;102115.44;5016370;28;45916;-78
2023/05/24 07:11:28;;;;;;;;;5.33;3.00;;;;;15.88;83.29;102112.81;5006692;28;47568;-78
2023/05/24 07:13:54;;;;;;;;;3.33;3.00;;;;;15.90;83.21;102119.94;5006641;28;45483;-78
2023/05/24 07:16:19;;;;;;;;;0.00;0.00;;;;;15.94;82.98;102115.53;5003083;28;60139;-78
2023/05/24 07:18:44;;;;;;;;;6.33;4.00;;;;;15.94;82.98;102116.44;5008214;28;45528;-79
2023/05/24 07:21:10;;;;;;;;;7.00;3.00;;;;;15.98;83.16;102120.03;5007593;28;47210;-79
2023/05/24 07:23:36;;;;;;;;;6.33;3.33;;;;;16.03;82.93;102114.72;4994156;28;53541;-79
2023/05/24 07:26:03;;;;;;;;;6.00;2.00;;;;;16.05;83.31;102113.88;5009293;28;45305;-78
2023/05/24 07:28:29;;;;;;;;;4.33;4.00;;;;;16.11;83.81;102121.00;5004613;28;45498;-77
2023/05/24 07:30:54;;;;;;;;;5.00;3.00;;;;;16.16;82.95;102124.63;5013137;28;45572;-79
2023/05/24 07:33:19;;;;;;;;;4.00;3.00;;;;;16.17;82.68;102113.06;5014853;28;65255;-79
2023/05/24 07:35:50;;;;;;;;;4.00;2.67;;;;;16.21;82.47;102122.88;5016337;28;45702;-78
2023/05/24 07:38:15;;;;;;;;;7.00;4.00;;;;;16.25;82.29;102122.03;5011215;28;45311;-78
2023/05/24 07:40:41;;;;;;;;;5.00;3.33;;;;;16.29;81.93;102121.16;5010307;28;46177;-79
2023/05/24 07:43:06;;;;;;;;;2.33;2.33;;;;;16.31;81.87;102113.19;5011939;28;45472;-78
2023/05/24 07:45:31;;;;;;;;;3.33;2.33;;;;;16.36;82.06;102125.69;5018801;28;59956;-80
2023/05/24 07:47:57;;;;;;;;;6.33;3.00;;;;;16.38;81.50;102121.25;5015676;28;50767;-81
2023/05/24 07:50:22;;;;;;;;;1.67;1.67;;;;;16.41;81.11;102121.28;5015687;28;46875;-78
2023/05/24 07:52:48;;;;;;;;;5.67;3.00;;;;;16.46;81.10;102119.53;5015829;28;45678;-78
2023/05/24 07:55:14;;;;;;;;;6.33;4.00;;;;;16.53;81.08;102114.25;5012615;28;45382;-79
2023/05/24 07:57:40;;;;;;;;;8.00;3.00;;;;;16.57;80.92;102116.94;5013417;28;46306;-78
2023/05/24 08:00:13;;;;;;;;;6.00;3.00;;;;;16.61;80.75;102123.16;5015029;28;47473;-78
2023/05/24 08:02:40;;;;;;;;;3.67;2.00;;;;;16.68;80.07;102125.03;4997337;28;45765;-77
2023/05/24 08:05:08;;;;;;;;;5.00;2.00;;;;;16.71;79.99;102125.06;5014990;28;45436;-78
2023/05/24 08:07:34;;;;;;;;;3.33;3.00;;;;;16.76;79.50;102128.66;5011448;28;46459;-80
2023/05/24 08:09:59;;;;;;;;;2.00;2.00;;;;;16.79;79.19;102119.78;4995671;28;47381;-80
2023/05/24 08:12:25;;;;;;;;;8.33;3.00;;;;;16.84;79.51;102126.94;5014620;28;45527;-81
2023/05/24 08:14:50;;;;;;;;;4.33;3.00;;;;;16.90;79.04;102124.28;5011500;28;45838;-80
2023/05/24 08:17:16;;;;;;;;;4.00;2.33;;;;;16.92;78.34;102118.94;4996612;28;45827;-81
2023/05/24 08:19:41;;;;;;;;;2.00;2.00;;;;;16.96;77.62;102132.31;5011216;28;70614;-82
2023/05/24 08:22:06;;;;;;;;;2.00;2.00;;;;;16.99;76.89;102127.03;5014579;28;67700;-80
2023/05/24 08:24:32;;;;;;;;;4.00;3.00;;;;;17.01;76.61;102127.00;5014401;28;45408;-80
2023/05/24 08:26:57;;;;;;;;;5.00;3.00;;;;;17.03;75.98;102133.25;5011031;28;56450;-80
2023/05/24 08:29:23;;;;;;;;;2.33;2.00;;;;;17.05;76.32;102136.84;5009681;28;46603;-80
2023/05/24 08:31:48;;;;;;;;;2.00;2.00;;;;;17.08;76.45;102136.81;4994877;28;46601;-80
2023/05/24 08:34:14;;;;;;;;;3.67;3.00;;;;;17.13;76.24;102137.75;5016272;28;63824;-81
2023/05/24 08:36:42;;;;;;;;;4.00;4.00;;;;;17.17;75.37;102125.31;5013589;28;45438;-80
2023/05/24 08:39:08;;;;;;;;;5.00;3.00;;;;;17.21;75.82;102128.00;4992532;28;48216;-82
2023/05/24 08:41:36;;;;;;;;;6.00;2.00;;;;;17.24;75.41;102130.66;5012872;28;45476;-80
2023/05/24 08:44:06;;;;;;;;;7.00;2.00;;;;;17.27;75.01;102130.69;4997057;28;45546;-81
2023/05/24 08:46:34;;;;;;;;;2.00;1.00;;;;;17.31;74.27;102131.63;5013420;28;45575;-80
2023/05/24 08:49:02;;;;;;;;;2.00;2.00;;;;;17.31;73.72;102130.69;5014009;28;46646;-81
2023/05/24 08:51:28;;;;;;;;;1.00;1.00;;;;;17.33;73.52;102121.81;4990900;28;45452;-83
2023/05/24 08:53:54;;;;;;;;;2.00;2.00;;;;;17.37;73.70;102118.28;5014348;28;45315;-81
2023/05/24 08:56:20;;;;;;;;;2.00;2.00;;;;;17.41;73.28;102124.50;4996261;28;45500;-80
2023/05/24 08:58:46;;;;;;;;;3.67;1.67;;;;;17.47;73.28;102116.50;5006915;28;46194;-81
2023/05/24 09:01:12;;;;;;;;;3.33;2.00;;;;;17.52;72.85;102122.75;5009589;28;47369;-81
2023/05/24 09:03:39;;;;;;;;;4.00;2.00;;;;;17.55;71.61;102118.31;5010788;28;45479;-81
2023/05/24 09:06:06;;;;;;;;;1.00;1.00;;;;;17.61;71.06;102112.09;5000912;28;45671;-80
2023/05/24 09:08:34;;;;;;;;;2.00;2.00;;;;;17.66;70.39;102118.34;5009235;28;48456;-80
2023/05/24 09:11:01;;;;;;;;;1.67;1.67;;;;;17.71;70.42;102111.25;4999329;28;45478;-80
2023/05/24 09:13:27;;;;;;;;;3.33;2.00;;;;;17.76;68.42;102105.94;5013226;28;45719;-79
2023/05/24 09:15:52;;;;;;;;;2.00;2.00;;;;;17.81;68.32;102112.19;5002180;28;60541;-80
2023/05/24 09:18:18;;;;;;;;;3.67;3.00;;;;;17.85;67.08;102103.31;5014249;28;47242;-81
2023/05/24 09:20:43;;;;;;;;;1.00;1.00;;;;;17.88;66.53;102099.72;5003007;28;47210;-80
2023/05/24 09:23:10;;;;;;;;;2.67;1.67;;;;;17.90;65.19;102097.97;5016242;28;61623;-79
2023/05/24 09:25:36;;;;;;;;;3.00;1.33;;;;;17.93;65.35;102101.50;5004932;28;52492;-79
2023/05/24 09:28:05;;;;;;;;;3.33;2.00;;;;;17.98;65.91;102090.81;4994014;28;71664;-80
2023/05/24 09:30:30;;;;;;;;;4.33;1.00;;;;;18.03;64.78;102091.72;5020734;28;45654;-81
2023/05/24 09:33:00;;;;;;;;;2.00;2.00;;;;;18.09;64.19;102098.84;5004894;28;45499;-78
2023/05/24 09:35:26;;;;;;;;;5.00;2.33;;;;;18.15;63.84;102099.72;5016933;28;45611;-79
2023/05/24 09:37:56;;;;;;;;;44.75;37.25;;;;;18.20;62.93;102092.59;5000035;28;46398;-79
2023/05/24 09:40:22;;;;;;;;;74.25;63.00;;;;;18.25;63.62;102093.50;4993369;28;45492;-79
2023/05/24 09:42:50;;;;;;;;;48.50;35.25;;;;;18.31;63.27;102096.16;5005746;28;46271;-80
2023/05/24 09:45:16;;;;;;;;;23.67;19.67;;;;;18.36;62.73;102089.94;5010834;28;45623;-79
2023/05/24 09:47:43;;;;;;;;;24.33;20.67;;;;;18.40;62.78;102087.25;5010874;28;47393;-79
2023/05/24 09:50:16;;;;;;;;;4.00;2.33;;;;;18.47;62.54;102097.03;5010993;28;45404;-80
2023/05/24 09:52:41;;;;;;;;;6.00;4.00;;;;;18.51;60.77;102089.91;5012770;28;45538;-79
2023/05/24 09:55:18;;;;;;;;;8.33;8.00;;;;;18.56;61.41;102089.00;5015852;28;45774;-79
2023/05/24 09:57:44;;;;;;;;;3.33;3.33;;;;;18.63;61.08;102083.63;5010990;28;47463;-79
2023/05/24 10:00:13;;;;;;;;;98.00;92.00;;;;;18.67;61.27;102078.28;5007516;28;45843;-78
2023/05/24 10:02:39;;;;;;;;;330.50;278.00;;;;;18.74;61.11;102074.72;5005359;28;45332;-79
2023/05/24 10:05:05;;;;;;;;;599.25;485.50;;;;;18.81;61.26;102071.16;5011113;28;63012;-79
2023/05/24 10:07:32;;;;;;;;;39.50;29.75;;;;;18.87;61.36;102077.38;4991671;28;47441;-79
2023/05/24 10:09:58;;;;;;;;;178.50;154.75;;;;;18.92;61.22;102073.78;4993382;28;45720;-79
2023/05/24 10:12:24;;;;;;;;;46.75;35.50;;;;;19.00;61.59;102073.75;5011419;28;56479;-82
2023/05/24 10:14:50;;;;;;;;;19.00;13.00;;;;;19.05;60.40;102074.63;4993374;28;45474;-79
2023/05/24 10:17:15;;;;;;;;;3.33;3.33;;;;;19.11;59.42;102074.59;4991005;28;46156;-79
2023/05/24 10:19:40;;;;;;;;;2.33;1.67;;;;;19.15;59.80;102065.66;5004147;28;70414;-78
2023/05/24 10:22:07;;;;;;;;;2.67;1.33;;;;;19.22;59.68;102072.75;5015493;28;45543;-78
2023/05/24 10:24:37;;;;;;;;;1.33;1.33;;;;;19.26;58.44;102060.25;5009871;28;45576;-80
2023/05/24 10:27:06;;;;;;;;;0.67;0.67;;;;;19.32;57.58;102063.75;4987440;28;46516;-80
2023/05/24 10:29:59;;;;;;;;;2.00;2.00;;;;;19.38;57.01;102070.88;4977508;28;45723;-80
2023/05/24 10:32:30;;;;;;;;;2.67;2.67;;;;;19.43;57.09;102060.13;4986220;28;45835;-84
2023/05/24 10:34:56;;;;;;;;;9.33;8.00;;;;;19.51;55.80;102063.69;4994826;28;45591;-78
2023/05/24 10:37:23;;;;;;;;;2.67;2.67;;;;;19.56;55.59;102061.84;4994502;28;46752;-82
2023/05/24 10:39:48;;;;;;;;;6.33;5.00;;;;;19.63;55.89;102060.94;4994453;28;45458;-85
2023/05/24 10:42:16;;;;;;;;;4.67;3.67;;;;;19.70;56.19;102053.75;4970631;28;45591;-82
2023/05/24 10:44:41;;;;;;;;;3.00;2.67;;;;;19.76;56.61;102054.63;4991323;28;45615;-80
2023/05/24 10:47:11;;;;;;;;;2.00;2.00;;;;;19.84;56.57;102051.84;5010920;28;71241;-80
2023/05/24 10:49:47;;;;;;;;;2.00;2.00;;;;;19.93;56.09;102061.63;4993244;28;45674;-80
2023/05/24 10:52:12;;;;;;;;;0.67;0.67;;;;;20.00;54.74;102052.63;4983855;28;45510;-80
2023/05/24 10:54:38;;;;;;;;;4.00;1.00;;;;;20.05;54.39;102065.09;4991099;28;45525;-80
2023/05/24 10:57:05;;;;;;;;;2.00;1.00;;;;;20.11;53.80;102056.97;4988315;28;46685;-81
2023/05/24 10:59:39;;;;;;;;;2.67;1.00;;;;;20.17;53.40;102049.78;5009719;28;45552;-83
2023/05/24 11:02:13;;;;;;;;;4.00;1.00;;;;;20.24;53.22;102056.84;4984663;28;45376;-79
2023/05/24 11:04:44;;;;;;;;;1.67;1.67;;;;;20.29;51.77;102055.03;4989396;28;45501;-81
2023/05/24 11:07:13;;;;;;;;;1.33;1.33;;;;;20.34;52.18;102061.22;4998390;28;45992;-78
2023/05/24 11:09:45;;;;;;;;;4.33;1.00;;;;;20.41;51.00;102055.81;4991125;28;45684;-80
2023/05/24 11:12:13;;;;;;;;;1.67;1.67;;;;;20.46;51.11;102055.81;5008410;28;45446;-85
2023/05/24 11:14:39;;;;;;;;;1.33;1.00;;;;;20.52;50.77;102053.06;4991848;28;45496;-79
2023/05/24 11:17:05;;;;;;;;;1.00;1.00;;;;;20.62;50.95;102061.91;4989024;28;45505;-79
2023/05/24 11:19:34;;;;;;;;;1.33;1.33;;;;;20.70;51.19;102056.44;4991698;28;45555;-79
2023/05/24 11:22:05;;;;;;;;;2.67;1.67;;;;;20.79;50.71;102061.69;4994067;28;45455;-79
2023/05/24 11:24:32;;;;;;;;;2.00;2.00;;;;;20.86;50.71;102069.66;4991785;28;45475;-80